createdAt,value
2022-08-26T08:10:43.624Z,9.80
2022-08-26T09:06:50.101Z,8.03
2022-08-26T09:10:09.215Z,9.33
2022-08-26T09:13:26.142Z,8.30
2022-08-26T09:16:25.359Z,8.40
2022-08-26T09:22:49.635Z,7.93
2022-08-26T09:25:18.610Z,7.60
2022-08-26T09:27:51.432Z,6.90
2022-08-26T09:30:34.477Z,6.30
2022-08-26T09:33:03.253Z,6.63
2022-08-26T09:35:39.669Z,6.33
2022-08-26T09:38:28.144Z,5.40
2022-08-26T09:41:01.781Z,5.53
2022-08-26T09:43:29.595Z,5.23
2022-08-26T09:46:14.078Z,4.93
2022-08-26T09:48:43.084Z,5.20
2022-08-26T09:51:26.353Z,4.80
2022-08-26T09:53:56.561Z,5.97
2022-08-26T09:56:35.481Z,5.93
2022-08-26T09:59:04.887Z,6.30
2022-08-26T10:01:43.879Z,6.13
2022-08-26T10:04:20.405Z,6.60
2022-08-26T10:07:07.350Z,7.00
2022-08-26T10:09:43.429Z,7.47
2022-08-26T10:12:21.480Z,7.20
2022-08-26T10:14:54.066Z,8.93
2022-08-26T10:18:04.122Z,8.00
2022-08-26T10:20:46.179Z,8.40
2022-08-26T10:23:42.680Z,9.37
2022-08-26T10:30:17.488Z,8.83
2022-08-26T10:40:31.936Z,8.90
2022-08-26T10:44:01.670Z,9.83
2022-08-26T10:47:21.034Z,9.13
2022-08-26T10:50:13.239Z,7.80
2022-08-26T11:00:22.013Z,7.97
2022-08-26T11:07:33.629Z,8.53
2022-08-26T11:10:07.143Z,8.33
2022-08-26T11:12:37.362Z,9.07
2022-08-26T11:19:59.614Z,8.00
2022-08-26T11:21:57.454Z,8.00
2022-08-26T11:23:08.772Z,7.60
2022-08-26T11:26:03.240Z,8.63
2022-08-26T11:29:01.446Z,8.40
2022-08-26T11:31:30.808Z,7.10
2022-08-26T11:34:10.933Z,7.43
2022-08-26T11:36:46.777Z,6.70
2022-08-26T11:39:19.546Z,5.67
2022-08-26T11:41:48.888Z,6.37
2022-08-26T11:44:25.726Z,6.20
2022-08-26T11:46:54.832Z,6.20
2022-08-26T11:49:22.334Z,5.97
2022-08-26T11:51:49.174Z,5.23
2022-08-26T11:54:35.093Z,5.27
2022-08-26T11:57:07.947Z,5.10
2022-08-26T11:59:40.545Z,3.93
2022-08-26T12:02:18.122Z,4.13
2022-08-26T12:04:49.059Z,4.13
2022-08-26T12:07:18.506Z,3.93
2022-08-26T12:09:58.093Z,3.77
2022-08-26T12:12:42.501Z,3.27
2022-08-26T12:15:22.769Z,3.60
2022-08-26T12:17:54.512Z,3.30
2022-08-26T12:20:48.908Z,3.13
2022-08-26T12:23:22.855Z,2.73
2022-08-26T12:25:54.111Z,3.13
2022-08-26T12:28:23.150Z,3.37
2022-08-26T12:31:05.304Z,3.00
2022-08-26T12:33:34.664Z,3.90
2022-08-26T12:36:02.824Z,3.50
2022-08-26T12:38:32.078Z,4.13
2022-08-26T12:40:58.945Z,4.03
2022-08-26T12:43:44.033Z,4.67
2022-08-26T12:46:15.972Z,4.23
2022-08-26T12:48:47.648Z,4.47
2022-08-26T12:51:26.629Z,3.70
2022-08-26T12:53:54.341Z,3.50
2022-08-26T12:56:27.900Z,3.77
2022-08-26T12:59:25.582Z,3.50
2022-08-26T13:01:53.652Z,3.80
2022-08-26T13:04:43.613Z,3.83
2022-08-26T13:07:18.204Z,3.70
2022-08-26T13:09:44.996Z,3.37
2022-08-26T13:12:33.329Z,3.70
2022-08-26T13:15:01.776Z,3.30
2022-08-26T13:17:29.666Z,3.33
2022-08-26T13:20:03.285Z,3.60
2022-08-26T13:22:30.958Z,3.90
2022-08-26T13:24:58.225Z,4.10
2022-08-26T13:27:26.648Z,4.40
2022-08-26T13:29:55.374Z,4.70
2022-08-26T13:32:24.771Z,4.70
2022-08-26T13:34:56.262Z,4.23
2022-08-26T13:37:24.349Z,4.20
2022-08-26T13:40:02.692Z,3.80
2022-08-26T13:42:29.801Z,3.30
2022-08-26T13:44:58.221Z,3.40
2022-08-26T13:47:26.108Z,3.77
2022-08-26T13:49:55.252Z,3.00
2022-08-26T13:52:25.505Z,3.10
2022-08-26T13:54:57.136Z,3.43
2022-08-26T13:57:24.777Z,3.23
2022-08-26T13:59:53.955Z,2.60
2022-08-26T14:02:20.845Z,2.63
2022-08-26T14:04:47.674Z,2.70
2022-08-26T14:07:15.060Z,2.60
2022-08-26T14:09:42.054Z,2.40
2022-08-26T14:12:09.037Z,2.10
2022-08-26T14:14:35.832Z,2.23
2022-08-26T14:17:02.720Z,1.80
2022-08-26T14:19:30.682Z,1.90
2022-08-26T14:21:58.901Z,1.80
2022-08-26T14:24:25.765Z,2.47
2022-08-26T14:26:52.596Z,2.17
2022-08-26T14:29:19.398Z,2.17
2022-08-26T14:31:46.362Z,1.93
2022-08-26T14:34:14.250Z,1.80
2022-08-26T14:36:41.130Z,2.17
2022-08-26T14:39:10.878Z,1.83
2022-08-26T14:41:54.062Z,2.03
2022-08-26T14:44:24.509Z,1.87
2022-08-26T14:46:53.085Z,2.17
2022-08-26T14:49:21.462Z,2.03
2022-08-26T14:51:48.425Z,2.50
2022-08-26T14:54:16.635Z,2.67
2022-08-26T14:56:56.647Z,2.47
2022-08-26T14:59:29.948Z,2.80
2022-08-26T15:01:57.387Z,2.90
2022-08-26T15:04:25.236Z,3.63
2022-08-26T15:06:54.692Z,4.00
2022-08-26T15:09:22.570Z,4.30
2022-08-26T15:11:50.429Z,4.60
2022-08-26T15:14:19.137Z,4.63
2022-08-26T15:16:48.233Z,4.20
2022-08-26T15:19:16.007Z,4.33
2022-08-26T15:21:43.498Z,4.10
2022-08-26T15:24:10.419Z,3.80
2022-08-26T15:26:37.409Z,3.70
2022-08-26T15:29:05.270Z,4.10
2022-08-26T15:31:33.523Z,4.20
2022-08-26T15:34:06.657Z,3.60
2022-08-26T15:36:37.084Z,4.03
2022-08-26T15:39:06.347Z,3.83
2022-08-26T15:41:34.953Z,3.97
2022-08-26T15:44:08.542Z,4.50
2022-08-26T15:46:36.441Z,4.77
2022-08-26T15:49:05.548Z,4.73
2022-08-26T15:51:45.870Z,4.83
2022-08-26T15:54:14.131Z,5.13
2022-08-26T15:56:41.041Z,5.30
2022-08-26T15:59:11.710Z,5.23
2022-08-26T16:01:39.331Z,6.13
2022-08-26T16:04:09.793Z,6.27
2022-08-26T16:06:39.706Z,7.17
2022-08-26T16:09:21.549Z,7.03
2022-08-26T16:19:34.831Z,7.63
2022-08-26T16:22:39.898Z,7.40
2022-08-26T16:25:34.810Z,7.27
2022-08-26T16:28:37.849Z,8.30
2022-08-26T16:35:23.510Z,9.00
2022-08-26T16:38:20.337Z,9.27
2022-08-26T16:46:04.996Z,9.10
2022-08-26T16:49:00.296Z,8.70
2022-08-26T16:55:31.840Z,8.70
2022-08-26T16:58:46.838Z,7.17
2022-08-26T18:47:38.700Z,9.40
